MET6032 - Manchester to London Heathrow

Boeing 737-800
G-FLII - Fly UK
0 hrs 40 mins
131 nm
Fly UK Codeshare - Daily

Departure

Departing from
Manchester (MAN)
Departure gate
Scheduled Departure
GMT 1115
Local 1115
METAR EGCC 221350Z AUTO 17004KT 140V220 5000 HZ BKN018 OVC030 03/01 Q1024 NOSIG
TAF TAF AMD EGCC 221156Z 2212/2318 18005KT 9999 SCT030 TEMPO 2212/2213 4000 RA -RASN TEMPO 2213/2215 7000 BECMG 2215/2218 7000 TEMPO 2215/2312 3000 BR PROB30 2304/2311 0300 FZFG VV/// PROB40 TEMPO 2311/2313 BKN004
  • No charts available

Arrival

Arriving at
London Heathrow (LHR)
Arrival gate
Terminal 3
Scheduled Arrival
GMT 1155
Local 1155
METAR EGLL 221350Z AUTO VRB02KT 7000 NCD 06/01 Q1027 NOSIG
TAF TAF EGLL 221058Z 2212/2318 VRB03KT 6000 FEW025 TEMPO 2212/2215 4800 HZ PROB30 TEMPO 2214/2217 9999 BECMG 2217/2220 4500 BR PROB30 2300/2302 0500 FZFG BKN000 PROB40 2302/2312 0200 FZFG VV/// PROB30 TEMPO 2312/2318 0500 FG BKN001

Route Map

Planning Resources

SANBA N859 HON BNN4A
EGCC DCT SANBA DCT UTUXA DCT HON EGLL
EGCC HON EGLL
EGCC PEDIG DTY EGLL
EGCC MCT DTY LON EGLL
Route:
OFP Layout:
Units:
Detailed Navlog:
ETOPS Planning:
Plan Stepclimbs:
Runway Analysis:
Include NOTAMS:
FIR NOTAMS:
Flight Maps:

Return Flights

MET6031 (Operated by Fly UK)
Boeing 737-800
1005 GMT

Popularity

Hub Current Bids PiReps this month Total PiReps
KMCI 0 0 5
KLAX 0 0 2
KBOS 0 0 0